createdAt,value
2018-09-19T00:04:11.073Z,12.97
2018-09-19T00:09:08.314Z,11.90
2018-09-19T00:14:03.947Z,11.77
2018-09-19T00:18:58.291Z,12.77
2018-09-19T00:23:52.954Z,12.97
2018-09-19T00:28:48.489Z,13.03
2018-09-19T00:33:50.653Z,12.90
2018-09-19T00:38:52.665Z,12.00
2018-09-19T00:43:48.236Z,13.53
2018-09-19T00:48:42.429Z,12.47
2018-09-19T00:53:37.376Z,12.57
2018-09-19T00:58:32.949Z,12.93
2018-09-19T01:03:33.931Z,13.80
2018-09-19T01:08:29.400Z,12.30
2018-09-19T01:13:25.411Z,13.17
2018-09-19T01:18:20.249Z,13.03
2018-09-19T01:23:16.493Z,13.13
2018-09-19T01:28:11.120Z,13.20
2018-09-19T01:33:06.838Z,13.77
2018-09-19T01:38:01.407Z,12.53
2018-09-19T01:42:58.273Z,13.57
2018-09-19T01:47:52.426Z,13.47
2018-09-19T01:52:46.295Z,12.77
2018-09-19T01:57:41.545Z,13.43
2018-09-19T02:02:36.678Z,14.20
2018-09-19T02:07:39.741Z,14.00
2018-09-19T02:12:35.167Z,15.07
2018-09-19T02:17:29.180Z,14.43
2018-09-19T02:22:25.660Z,13.87
2018-09-19T02:27:19.800Z,13.53
2018-09-19T02:32:14.232Z,15.50
2018-09-19T02:37:09.321Z,14.53
2018-09-19T02:42:06.959Z,15.23
2018-09-19T02:47:00.868Z,14.80
2018-09-19T02:51:59.796Z,16.30
2018-09-19T02:56:53.914Z,15.00
2018-09-19T03:01:48.116Z,14.60
2018-09-19T03:06:44.460Z,15.20
2018-09-19T03:11:39.221Z,15.10
2018-09-19T03:16:33.729Z,15.40
2018-09-19T03:21:28.953Z,15.27
2018-09-19T03:26:23.168Z,15.30
2018-09-19T03:31:17.496Z,15.37
2018-09-19T03:36:12.372Z,15.27
2018-09-19T03:41:08.024Z,15.00
2018-09-19T03:46:04.689Z,16.07
2018-09-19T03:50:59.890Z,14.37
2018-09-19T03:55:57.532Z,16.93
2018-09-19T04:00:52.451Z,15.57
2018-09-19T04:05:46.392Z,16.17
2018-09-19T04:10:41.601Z,16.30
2018-09-19T04:15:38.143Z,14.70
2018-09-19T04:20:35.315Z,17.10
2018-09-19T04:25:30.398Z,16.40
2018-09-19T04:30:25.743Z,17.03
2018-09-19T04:35:20.385Z,16.13
2018-09-19T04:40:15.364Z,16.00
2018-09-19T04:45:10.440Z,16.33
2018-09-19T04:50:06.863Z,16.60
2018-09-19T04:55:01.720Z,23.80
2018-09-19T04:59:56.326Z,17.10
2018-09-19T05:04:51.664Z,16.10
2018-09-19T05:09:54.769Z,15.13
2018-09-19T05:14:49.210Z,16.23
2018-09-19T05:19:44.336Z,15.77
2018-09-19T05:24:40.171Z,16.57
2018-09-19T05:29:37.006Z,15.67
2018-09-19T05:34:39.395Z,15.57
2018-09-19T05:39:37.698Z,14.47
2018-09-19T05:44:32.307Z,15.70
2018-09-19T05:49:27.126Z,14.30
2018-09-19T05:54:22.778Z,15.40
2018-09-19T05:59:25.811Z,13.50
2018-09-19T06:04:27.684Z,13.50
2018-09-19T06:09:23.478Z,12.80
2018-09-19T06:14:19.689Z,13.03
2018-09-19T06:19:31.775Z,11.43
2018-09-19T06:24:52.084Z,13.07
2018-09-19T06:29:47.035Z,12.10
2018-09-19T06:34:41.122Z,11.87
2018-09-19T06:39:37.186Z,11.10
2018-09-19T06:44:32.531Z,11.63
2018-09-19T06:49:28.643Z,11.63
2018-09-19T06:54:22.818Z,11.67
2018-09-19T06:59:18.991Z,11.77
2018-09-19T07:04:14.313Z,12.20
2018-09-19T07:09:10.478Z,12.37
2018-09-19T07:14:06.251Z,11.47
2018-09-19T07:19:01.259Z,12.37
2018-09-19T07:23:56.436Z,11.50
2018-09-19T07:28:53.132Z,11.27
2018-09-19T07:33:47.106Z,12.07
2018-09-19T07:38:42.345Z,12.37
2018-09-19T07:43:38.251Z,11.80
2018-09-19T07:48:33.615Z,11.20
2018-09-19T07:53:33.152Z,9.97
2018-09-19T07:58:28.237Z,9.10
2018-09-19T08:03:24.012Z,8.83
2018-09-19T08:08:18.587Z,9.13
2018-09-19T08:13:12.850Z,8.60
2018-09-19T08:18:07.414Z,8.80
2018-09-19T08:23:03.818Z,7.60
2018-09-19T08:27:59.661Z,7.57
2018-09-19T08:33:18.765Z,8.10
2018-09-19T08:38:16.394Z,6.67
2018-09-19T08:43:10.253Z,6.83
2018-09-19T08:48:06.202Z,6.80
2018-09-19T08:53:02.090Z,6.93
2018-09-19T08:58:05.964Z,6.50
2018-09-19T09:03:08.749Z,6.20
2018-09-19T09:08:10.124Z,7.47
2018-09-19T09:13:05.094Z,7.87
2018-09-19T09:18:00.489Z,7.87
2018-09-19T09:22:57.369Z,5.87
2018-09-19T09:27:52.127Z,5.87
2018-09-19T09:32:54.997Z,5.47
2018-09-19T09:37:59.072Z,6.17
2018-09-19T09:43:16.322Z,5.40
2018-09-19T09:48:34.447Z,5.70
2018-09-19T09:53:52.503Z,6.00
2018-09-19T09:58:48.847Z,6.50
2018-09-19T10:03:43.313Z,5.73
2018-09-19T10:08:38.820Z,5.50
2018-09-19T10:13:35.603Z,5.92
2018-09-19T10:18:42.968Z,6.03
2018-09-19T10:23:42.749Z,6.67
2018-09-19T10:28:36.645Z,8.30
2018-09-19T10:33:32.708Z,5.93
2018-09-19T10:38:26.721Z,10.87
2018-09-19T10:43:22.477Z,7.27
2018-09-19T10:48:17.130Z,6.40
2018-09-19T10:53:13.710Z,7.00
2018-09-19T10:58:08.939Z,6.60
2018-09-19T11:03:26.052Z,7.77
2018-09-19T11:08:35.887Z,7.13
2018-09-19T11:13:46.519Z,7.87
2018-09-19T11:18:58.237Z,9.30
2018-09-19T11:23:54.882Z,7.87
2018-09-19T11:28:57.793Z,8.57
2018-09-19T11:33:53.854Z,9.97
2018-09-19T11:38:49.306Z,12.13
2018-09-19T11:43:43.731Z,10.50
2018-09-19T11:48:38.242Z,11.23
2018-09-19T11:53:34.055Z,10.90
2018-09-19T11:58:29.373Z,11.77
2018-09-19T12:03:24.771Z,9.73
2018-09-19T12:08:20.942Z,9.60
2018-09-19T12:13:23.508Z,9.80
2018-09-19T12:18:25.304Z,10.43
2018-09-19T12:23:28.169Z,9.73
2018-09-19T12:28:24.452Z,8.87
2018-09-19T12:33:19.742Z,8.70
2018-09-19T12:38:14.956Z,9.27
2018-09-19T12:43:09.166Z,9.40
2018-09-19T12:48:04.025Z,9.07
2018-09-19T12:52:58.114Z,8.57
2018-09-19T12:57:54.679Z,9.17
2018-09-19T13:02:49.619Z,9.07
2018-09-19T13:07:44.370Z,9.30
2018-09-19T13:12:38.968Z,8.73
2018-09-19T13:17:34.271Z,8.37
2018-09-19T13:22:29.290Z,8.33
2018-09-19T13:27:23.542Z,8.70
2018-09-19T13:32:32.879Z,8.00
2018-09-19T13:37:46.052Z,8.07
2018-09-19T13:42:40.712Z,7.83
2018-09-19T13:47:44.571Z,7.20
2018-09-19T13:52:40.916Z,7.30
2018-09-19T13:57:38.284Z,7.23
2018-09-19T14:02:33.211Z,7.23
2018-09-19T14:07:28.955Z,7.17
2018-09-19T14:12:33.110Z,6.97
2018-09-19T14:17:29.140Z,6.67
2018-09-19T14:22:23.564Z,6.23
2018-09-19T14:27:20.238Z,6.40
2018-09-19T14:32:17.271Z,8.20
2018-09-19T14:37:14.405Z,5.77
2018-09-19T14:42:08.892Z,6.17
2018-09-19T14:47:25.510Z,6.43
2018-09-19T14:52:20.471Z,5.30
2018-09-19T14:57:14.979Z,6.60
2018-09-19T15:02:10.169Z,5.67
2018-09-19T15:07:05.533Z,5.90
2018-09-19T15:12:03.232Z,6.47
2018-09-19T15:17:01.785Z,6.90
2018-09-19T15:21:57.965Z,5.70
2018-09-19T15:26:54.011Z,6.03
2018-09-19T15:31:52.438Z,7.97
2018-09-19T15:36:56.343Z,5.43
2018-09-19T15:41:53.766Z,4.93
2018-09-19T15:46:49.081Z,5.80
2018-09-19T15:51:44.915Z,6.43
2018-09-19T15:56:40.025Z,6.43
2018-09-19T16:01:36.229Z,6.37
2018-09-19T16:06:32.195Z,6.57
2018-09-19T16:11:27.069Z,6.83
2018-09-19T16:16:23.576Z,7.60
2018-09-19T16:21:27.079Z,7.30
2018-09-19T16:26:29.844Z,7.90
2018-09-19T16:31:33.549Z,7.27
2018-09-19T16:36:34.413Z,7.87
2018-09-19T16:41:30.821Z,7.37
2018-09-19T16:46:26.228Z,7.67
2018-09-19T16:51:21.918Z,8.87
2018-09-19T16:56:24.644Z,9.10
2018-09-19T17:01:29.679Z,9.43
2018-09-19T17:06:32.829Z,9.57
2018-09-19T17:11:28.828Z,8.90
2018-09-19T17:16:24.236Z,9.90
2018-09-19T17:21:19.338Z,8.13
2018-09-19T17:26:14.593Z,9.97
2018-09-19T17:31:18.142Z,12.87
2018-09-19T17:36:22.096Z,22.20
2018-09-19T17:41:24.469Z,20.03
2018-09-19T17:46:30.254Z,32.97
2018-09-19T17:51:39.210Z,19.50
2018-09-19T17:56:50.756Z,13.40
2018-09-19T18:02:01.382Z,16.93
2018-09-19T18:07:13.880Z,10.00
2018-09-19T18:12:09.033Z,11.23
2018-09-19T18:17:14.675Z,9.97
2018-09-19T18:22:11.076Z,9.83
2018-09-19T18:27:13.664Z,11.37
2018-09-19T18:32:08.697Z,14.37
2018-09-19T18:37:06.446Z,12.67
2018-09-19T18:42:15.855Z,13.70
2018-09-19T18:47:19.651Z,10.47
2018-09-19T18:52:16.275Z,15.37
2018-09-19T18:57:12.012Z,11.57
2018-09-19T19:02:09.745Z,12.53
2018-09-19T19:07:06.088Z,10.00
2018-09-19T19:12:09.465Z,11.10
2018-09-19T19:17:07.105Z,16.23
2018-09-19T19:22:05.532Z,16.77
2018-09-19T19:27:02.236Z,38.77
2018-09-19T19:31:57.348Z,19.77
2018-09-19T19:37:00.755Z,22.97
2018-09-19T19:41:56.096Z,27.97
2018-09-19T19:46:51.209Z,19.13
2018-09-19T19:51:56.065Z,13.80
2018-09-19T19:56:51.351Z,14.37
2018-09-19T20:01:56.742Z,9.80
2018-09-19T20:07:01.201Z,15.50
2018-09-19T20:11:57.583Z,10.80
2018-09-19T20:16:53.700Z,14.70
2018-09-19T20:21:49.662Z,11.80
2018-09-19T20:26:46.877Z,10.37
2018-09-19T20:31:50.777Z,13.70
2018-09-19T20:36:45.791Z,14.33
2018-09-19T20:41:45.895Z,10.70
2018-09-19T20:46:41.534Z,11.23
2018-09-19T20:51:36.131Z,10.40
2018-09-19T20:56:33.871Z,11.80
2018-09-19T21:01:39.111Z,11.37
2018-09-19T21:06:43.928Z,11.57
2018-09-19T21:11:48.907Z,10.27
2018-09-19T21:16:44.185Z,11.43
2018-09-19T21:21:43.239Z,9.77
2018-09-19T21:26:38.632Z,10.40
2018-09-19T21:31:35.298Z,10.50
2018-09-19T21:36:31.672Z,12.07
2018-09-19T21:41:26.839Z,10.27
2018-09-19T21:46:23.388Z,10.30
2018-09-19T21:51:18.459Z,12.30
2018-09-19T21:56:19.701Z,10.37
2018-09-19T22:01:14.110Z,14.93
2018-09-19T22:06:11.983Z,15.13
2018-09-19T22:11:06.712Z,10.23
2018-09-19T22:16:03.707Z,10.53
2018-09-19T22:21:00.351Z,10.10
2018-09-19T22:25:55.993Z,9.63
2018-09-19T22:30:55.669Z,10.57
2018-09-19T22:35:50.394Z,10.67
2018-09-19T22:40:46.386Z,10.47
2018-09-19T22:45:41.846Z,9.90
2018-09-19T22:50:38.917Z,10.00
2018-09-19T22:55:34.534Z,10.27
2018-09-19T23:00:33.278Z,10.80
2018-09-19T23:05:30.535Z,11.13
2018-09-19T23:10:27.280Z,10.40
2018-09-19T23:15:23.573Z,10.03
2018-09-19T23:20:18.911Z,10.70
2018-09-19T23:25:14.878Z,10.03
2018-09-19T23:30:11.344Z,10.00
2018-09-19T23:35:16.350Z,10.93
2018-09-19T23:40:13.602Z,8.97
2018-09-19T23:45:08.280Z,9.40
2018-09-19T23:50:03.981Z,8.80
2018-09-19T23:54:59.933Z,9.27
2018-09-19T23:59:56.525Z,8.80
